• Join FlightAware (Why Join?)
  • Login
  • US Flag 
02:01AM EDT


 

Airport Tracker/Info


-or-


 

Live Flight TrackerFlight Track Log ✈ N960DL ✈ 27-Jul-2013 ✈ KATL - KDTW

Flight Track Log - Related Links

Times and Time Zones

All times are in EDT time to prevent confusion due to time zone crossing. See the N960DL flight status page for this flight to view local times or setup timezone preferences in your user account.

Time Position Orientation Groundspeed Altitude Reporting Facility
EDT Latitude Longitude Course Direction KTS MPH feet Rate Location/Type
02:22PM 33.6500 -84.4667 North 166 191 2,300  Level Atlanta TRACON
02:23PM 33.6667 -84.5333 287° West 242 278 4,000 2,220 Climbing Atlanta TRACON
02:24PM 33.8387 -84.1720 320° Northwest  Level FlightAware Approximate
02:24PM 33.7167 -84.5833 320° Northwest 280 322 6,800  Level Atlanta TRACON
02:25PM 33.9340 -84.2667 North  Level FlightAware Approximate
02:25PM 33.8000 -84.5833 360° North 305 351 9,300  Level Atlanta TRACON
02:26PM 34.0576 -84.2667 North  Level FlightAware Approximate
02:26PM 33.9000 -84.4717 43° Northeast 324 373 11,300  Level Atlanta Center
02:27PM 34.1813 -84.2667 North  Level FlightAware Approximate
02:27PM 33.9608 -84.3919 47° Northeast 347 399 14,700  Level Atlanta Center
02:28PM 34.0506 -84.3622 15° North 324 373 16,700 1,800 Climbing Atlanta Center
02:29PM 34.1592 -84.3250 16° North 369 425 18,400 1,680 Climbing Atlanta Center
02:30PM 34.2614 -84.2925 15° North 364 419 20,100 1,500 Climbing Atlanta Center
02:31PM 34.3742 -84.2628 12° North 388 447 21,400 1,320 Climbing Atlanta Center
02:32PM 34.4869 -84.2353 11° North 410 472 22,800 1,380 Climbing Atlanta Center
02:33PM 34.6019 -84.2078 11° North 415 478 24,200 1,260 Climbing Atlanta Center
02:34PM 34.7167 -84.1853 North 415 478 25,400 1,020 Climbing Atlanta Center
02:35PM 34.8336 -84.1553 12° North 415 478 26,300 660 Climbing Atlanta Center
02:36PM 34.9589 -84.1250 11° North 434 499 26,800 540 Climbing Atlanta Center
02:37PM 35.0881 -84.0947 11° North 450 518 27,400 660 Climbing Atlanta Center
02:38PM 35.2258 -84.0617 11° North 479 551 28,200 900 Climbing Atlanta Center
02:39PM 35.3614 -84.0389 North 490 564 29,300 1,260 Climbing Atlanta Center
02:40PM 35.4992 -84.0208 North 490 564 30,800 1,140 Climbing Atlanta Center
02:41PM 35.6347 -84.0003 North 490 564 31,600 720 Climbing Atlanta Center
02:42PM 35.7725 -83.9797 North 495 570 32,300 600 Climbing Atlanta Center
02:43PM 35.9103 -83.9592 North 495 570 32,800 300 Climbing Atlanta Center
02:44PM 36.0478 -83.9231 12° North 500 575 33,000 60 Climbing Atlanta Center
02:45PM 36.2261 -83.8203 25° Northeast 519 597 33,000  Level Indianapolis Center
02:47PM 36.3536 -83.7331 29° Northeast 525 604 33,000  Level Indianapolis Center
02:48PM 36.4822 -83.6444 29° Northeast 529 609 33,100  Climbing Indianapolis Center
02:49PM 36.6083 -83.5617 28° Northeast 530 610 33,000 -60 Descending Indianapolis Center
02:50PM 36.7572 -83.4578 29° Northeast 521 600 33,000  Level Indianapolis Center
02:51PM 36.8858 -83.3694 29° Northeast 519 597 33,000  Level Indianapolis Center
02:52PM 37.0131 -83.2811 29° Northeast 516 594 33,000  Level Indianapolis Center
02:53PM 37.1419 -83.1917 29° Northeast 520 598 33,000  Level Indianapolis Center
02:54PM 37.2700 -83.1022 29° Northeast 520 598 33,000  Level Indianapolis Center
02:55PM 37.3972 -83.0128 29° Northeast 517 595 33,000  Level Indianapolis Center
02:56PM 37.5247 -82.9225 29° Northeast 519 597 33,000  Level Indianapolis Center
02:57PM 37.6522 -82.8303 30° Northeast 524 603 33,000  Level Indianapolis Center
02:58PM 37.7786 -82.7381 30° Northeast 522 601 33,000  Level Indianapolis Center
02:59PM 37.9044 -82.6475 30° Northeast 518 596 33,000  Level Indianapolis Center
03:00PM 38.0525 -82.5392 30° Northeast 522 601 33,000  Level Indianapolis Center
03:01PM 38.1625 -82.4581 30° Northeast 526 605 33,000  Level Indianapolis Center
03:02PM 38.2881 -82.3653 30° Northeast 521 600 33,000  Level Indianapolis Center
03:03PM 38.4144 -82.2736 30° Northeast 521 600 33,000  Level Indianapolis Center
03:04PM 38.5664 -82.1631 30° Northeast 521 600 33,000  Level Indianapolis Center
03:05PM 38.6936 -82.0678 30° Northeast 524 603 33,000  Level Indianapolis Center
03:06PM 38.8333 -82.0333 11° North 518 596 33,000  Level Indianapolis Center
03:07PM 38.9742 -82.0547 353° North 507 583 33,000  Level Indianapolis Center
03:08PM 39.1144 -82.0781 353° North 505 581 33,000  Level Indianapolis Center
03:09PM 39.2564 -82.1008 353° North 510 587 33,000  Level Indianapolis Center
03:10PM 39.3967 -82.1244 353° North 508 585 33,000  Level Indianapolis Center
03:11PM 39.5417 -82.1461 353° North 505 581 33,000  Level Indianapolis Center
03:12PM 39.6817 -82.1700 353° North 505 581 33,000  Level Indianapolis Center
03:13PM 39.8219 -82.1919 353° North 505 581 33,000  Level Indianapolis Center
03:14PM 39.9622 -82.2139 353° North 505 581 33,000  Level Indianapolis Center
03:15PM 40.1275 -82.2403 353° North 510 587 33,000 -240 Level Indianapolis Center
03:16PM 40.2694 -82.2656 352° North 503 579 32,600 -1,020 Descending Indianapolis Center
03:17PM 40.4103 -82.2889 353° North 506 582 31,000 -1,260 Descending Indianapolis Center
03:18PM 40.5497 -82.3175 351° North 500 575 30,000 -540 Descending Indianapolis Center
03:19PM 40.6875 -82.3569 348° North 500 575 30,000 -480 Level Indianapolis Center
03:20PM 40.8253 -82.4006 347° North 500 575 29,100 -1,260 Descending Indianapolis Center
03:21PM 40.9617 -82.4394 348° North 497 572 27,400 -1,500 Descending Indianapolis Center
03:22PM 41.1003 -82.4797 348° North 501 577 26,000 -1,620 Descending Indianapolis Center
03:23PM 41.2381 -82.5208 347° North 500 575 24,200 -1,620 Descending Indianapolis Center
03:25PM 41.3578 -82.6414 323° Northwest 463 533 22,500 -2,040 Descending Cleveland Center
03:26PM 41.4597 -82.7608 319° Northwest 453 521 19,800 -2,640 Descending Cleveland Center
03:27PM 41.5475 -82.8611 319° Northwest 432 497 17,300 -2,520 Descending Cleveland Center
03:28PM 41.6331 -82.9614 319° Northwest 411 473 14,800 -2,400 Descending Cleveland Center
03:29PM 41.7103 -83.0561 318° Northwest 404 465 12,500 -1,440 Descending Cleveland Center
03:30PM 41.7964 -83.1233 330° Northwest 378 435 12,000 -360 Descending Cleveland Center
03:30PM 41.8414 -83.1531 334° Northwest 341 392 12,000  Level Cleveland Center
03:31PM 41.9172 -83.2119 330° Northwest 294 338 12,000  Level Cleveland Center
03:32PM 41.9789 -83.2592 330° Northwest 260 299 12,000  Level Cleveland Center
03:33PM 42.0406 -83.2897 340° North 273 314 12,000  Level Cleveland Center
03:34PM 42.0844 -83.2886 North 256 295 12,000 -420 Level Cleveland Center
03:35PM 42.1475 -83.2633 17° North 255 293 11,400 -1,080 Descending Cleveland Center
03:35PM 42.1900 -83.2344 27° Northeast 272 313 10,400 -1,620 Descending Cleveland Center
03:36PM 42.2133 -83.2128 35° Northeast 260 299 9,800 -1,320 Descending Cleveland Center
03:36PM 42.2536 -83.1836 28° Northeast 272 313 9,100 -1,440 Descending Cleveland Center
03:37PM 42.3194 -83.1331 30° Northeast 267 307 7,700 -1,140 Descending Cleveland Center
03:38PM 42.3806 -83.0961 24° Northeast 226 260 6,900 -1,140 Descending Cleveland Center
03:39PM 42.3981 -83.1614 290° West 184 212 5,400 -1,560 Descending Cleveland Center
03:40PM 42.3778 -83.2197 245° Southwest 180 207 3,800 -1,140 Descending Cleveland Center
03:41PM 42.3333 -83.2544 210° Southwest 177 204 3,100 -840 Descending Cleveland Center
03:42PM 42.2867 -83.2833 205° Southwest 171 197 2,200 -840 Descending Cleveland Center
03:43PM 42.2547 -83.3100 212° Southwest 144 166 1,500 -780 Descending Cleveland Center
03:44PM 42.2189 -83.3336 206° Southwest 143 165 800 -720 Descending Cleveland Center